Map

Track Data

SID SEASON NUMBER BASIN SUBBASIN NAME ISO_TIME NATURE LAT LON WMO_WIND WMO_PRES WMO_AGENCY TRACK_TYPE DIST2LAND LANDFALL IFLAG USA_AGENCY USA_ATCF_ID USA_LAT USA_LON USA_RECORD USA_STATUS USA_WIND USA_PRES USA_SSHS USA_R34_NE USA_R34_SE USA_R34_SW USA_R34_NW USA_R50_NE USA_R50_SE USA_R50_SW USA_R50_NW USA_R64_NE USA_R64_SE USA_R64_SW USA_R64_NW USA_POCI USA_ROCI USA_RMW USA_EYE TOKYO_LAT TOKYO_LON TOKYO_GRADE TOKYO_WIND TOKYO_PRES TOKYO_R50_DIR TOKYO_R50_LONG TOKYO_R50_SHORT TOKYO_R30_DIR TOKYO_R30_LONG TOKYO_R30_SHORT TOKYO_LAND CMA_LAT CMA_LON CMA_CAT CMA_WIND CMA_PRES HKO_LAT HKO_LON HKO_CAT HKO_WIND HKO_PRES NEWDELHI_LAT NEWDELHI_LON NEWDELHI_GRADE NEWDELHI_WIND NEWDELHI_PRES NEWDELHI_CI NEWDELHI_DP NEWDELHI_POCI REUNION_LAT REUNION_LON REUNION_TYPE REUNION_WIND REUNION_PRES REUNION_TNUM REUNION_CI REUNION_RMW REUNION_R34_NE REUNION_R34_SE REUNION_R34_SW REUNION_R34_NW REUNION_R50_NE REUNION_R50_SE REUNION_R50_SW REUNION_R50_NW REUNION_R64_NE REUNION_R64_SE REUNION_R64_SW REUNION_R64_NW BOM_LAT BOM_LON BOM_TYPE BOM_WIND BOM_PRES BOM_TNUM BOM_CI BOM_RMW BOM_R34_NE BOM_R34_SE BOM_R34_SW BOM_R34_NW BOM_R50_NE BOM_R50_SE BOM_R50_SW BOM_R50_NW BOM_R64_NE BOM_R64_SE BOM_R64_SW BOM_R64_NW BOM_ROCI BOM_POCI BOM_EYE BOM_POS_METHOD BOM_PRES_METHOD NADI_LAT NADI_LON NADI_CAT NADI_WIND NADI_PRES WELLINGTON_LAT WELLINGTON_LON WELLINGTON_WIND WELLINGTON_PRES DS824_LAT DS824_LON DS824_STAGE DS824_WIND DS824_PRES TD9636_LAT TD9636_LON TD9636_STAGE TD9636_WIND TD9636_PRES TD9635_LAT TD9635_LON TD9635_WIND TD9635_PRES TD9635_ROCI NEUMANN_LAT NEUMANN_LON NEUMANN_CLASS NEUMANN_WIND NEUMANN_PRES MLC_LAT MLC_LON MLC_CLASS MLC_WIND MLC_PRES USA_GUST BOM_GUST BOM_GUST_PER REUNION_GUST REUNION_GUST_PER USA_SEAHGT USA_SEARAD_NE USA_SEARAD_SE USA_SEARAD_SW USA_SEARAD_NW STORM_SPEED STORM_DIR
1995341N08115 1995 96 WP MM NOT_NAMED 1995-12-07 00:00:00 TS 8.25000 114.900 main 253 253 O_O___________ jtwc_wp WP341995 8.00000 114.800 15 -1 8.50000 115.000 1 23 1004 5 312
1995341N08115 1995 96 WP MM NOT_NAMED 1995-12-07 03:00:00 TS 8.42002 114.703 main 275 275 P_P___________ WP341995 8.04501 114.650 15 -1 8.79502 114.755 1 26 1003 5 307
1995341N08115 1995 96 WP MM NOT_NAMED 1995-12-07 06:00:00 TS 8.55000 114.500 main 299 299 O_O___________ jtwc_wp WP341995 8.10000 114.500 15 -1 9.00000 114.500 1 29 1002 4 295
1995341N08115 1995 96 WP MM NOT_NAMED 1995-12-07 09:00:00 TS 8.60875 114.292 main 321 321 P_P___________ WP341995 8.16500 114.350 17 -1 9.05251 114.235 1 29 1001 4 277
1995341N08115 1995 96 WP MM NOT_NAMED 1995-12-07 12:00:00 TS 8.60000 114.100 main 342 342 O_O___________ jtwc_wp WP341995 8.20000 114.200 20 -1 9.00000 114.000 1 29 1000 4 261
1995341N08115 1995 96 WP MM NOT_NAMED 1995-12-07 15:00:00 TS 8.55124 113.935 main 362 357 P_P___________ WP341995 8.18000 114.043 22 -1 8.92248 113.827 1 29 1000 3 243
1995341N08115 1995 96 WP MM NOT_NAMED 1995-12-07 18:00:00 TS 8.45000 113.800 main 366 361 O_O___________ jtwc_wp WP341995 8.10000 113.900 25 -1 8.80000 113.700 1 29 1000 4 225
1995341N08115 1995 96 WP MM NOT_NAMED 1995-12-07 21:00:00 TS 8.29625 113.677 main 361 361 P_P___________ WP341995 7.95750 113.777 27 -1 8.63500 113.577 1 29 1001 4 213
1995341N08115 1995 96 WP MM NOT_NAMED 1995-12-08 00:00:00 TS 8.15000 113.600 main 361 354 O_O___________ jtwc_wp WP341995 7.80000 113.700 30 -1 8.50000 113.500 1 29 1002 2 203
1995341N08115 1995 96 WP MM NOT_NAMED 1995-12-08 03:00:00 TS 8.07750 113.585 main 354 354 P_P___________ WP341995 7.67750 113.685 30 -1 8.47750 113.485 1 29 1002 1 0
1995341N08115 1995 96 WP MM NOT_NAMED 1995-12-08 06:00:00 TS 8.05000 113.600 main 354 347 O_O___________ jtwc_wp WP341995 7.60000 113.700 30 -1 8.50000 113.500 1 29 1002 0 0
1995341N08115 1995 96 WP MM NOT_NAMED 1995-12-08 09:00:00 TS 8.05000 113.593 main 347 347 P_P___________ WP341995 7.57750 113.685 30 -1 8.52250 113.500 1 29 1002 0 0
1995341N08115 1995 96 WP MM NOT_NAMED 1995-12-08 12:00:00 TS 8.05000 113.600 main 354 347 O_O___________ jtwc_wp WP341995 7.60000 113.700 30 -1 8.50000 113.500 1 29 1002 1 128
1995341N08115 1995 96 WP MM NOT_NAMED 1995-12-08 15:00:00 TS 8.00750 113.643 main 347 338 P_P___________ WP341995 7.65000 113.785 30 -1 8.36500 113.500 1 29 1002 1 137
1995341N08115 1995 96 WP MM NOT_NAMED 1995-12-08 18:00:00 TS 7.95000 113.700 main 338 323 O_O___________ jtwc_wp WP341995 7.70000 113.900 30 -1 8.20000 113.500 1 29 1002 1 132
1995341N08115 1995 96 WP MM NOT_NAMED 1995-12-08 21:00:00 TS 7.90750 113.754 main 323 323 P_P___________ WP341995 7.70000 114.008 30 -1 8.11500 113.500 1 29 1002 1 137
1995341N08115 1995 96 WP MM NOT_NAMED 1995-12-09 00:00:00 TS 7.85000 113.800 main 323 308 O_O___________ jtwc_wp WP341995 7.70000 114.100 30 -1 8.00000 113.500 1 29 1002 2 162
1995341N08115 1995 96 WP MM NOT_NAMED 1995-12-09 03:00:00 TS 7.72748 113.806 main 308 308 P_P___________ WP341995 7.74249 114.150 30 -1 7.71248 113.463 1 29 1002 2 163
1995341N08115 1995 96 WP MM NOT_NAMED 1995-12-09 06:00:00 TS 7.65000 113.850 main 300 291 O_O___________ jtwc_wp WP341995 7.80000 114.200 30 -1 7.50000 113.500 1 29 1002 2 91
1995341N08115 1995 96 WP MM NOT_NAMED 1995-12-09 09:00:00 TS 7.72378 114.014 main 291 282 P_P___________ WP341995 7.85000 114.293 30 -1 7.59756 113.735 1 29 1002 6 59
1995341N08115 1995 96 WP MM NOT_NAMED 1995-12-09 12:00:00 TS 7.96667 114.378 main 282 267 O_OO__________ jtwc_wp WP341995 7.90000 114.400 30 -1 7.80000 114.000 1 29 1002 8.90000 115.800 TD 30 1002 7 57
1995341N08115 1995 96 WP MM NOT_NAMED 1995-12-09 15:00:00 TS 8.08650 114.589 main 267 258 P_PP__________ WP341995 7.95001 114.522 30 -1 7.89998 114.153 1 29 1002 8.73254 115.595 TD 30 1002 4 56
1995341N08115 1995 96 WP MM NOT_NAMED 1995-12-09 18:00:00 TS 8.16364 114.673 main 264 264 O_OO__________ jtwc_wp WP341995 8.00000 114.600 30 -1 8.00000 114.200 1 29 1002 8.60000 115.400 TD 30 1002 2 17
1995341N08115 1995 96 WP MM NOT_NAMED 1995-12-09 21:00:00 TS 8.24249 114.637 main 273 273 P_PP__________ WP341995 8.05000 114.580 30 -1 8.15001 114.115 1 29 1003 8.52746 115.215 TD 30 1002 2 308
1995341N08115 1995 96 WP MM NOT_NAMED 1995-12-10 00:00:00 TS 8.30000 114.500 main 288 288 O_OO__________ jtwc_wp WP341995 8.10000 114.500 30 -1 8.30000 114.000 1 29 1004 8.50000 115.000 TD 30 1002 3 293
1995341N08115 1995 96 WP MM NOT_NAMED 1995-12-10 03:00:00 TS 8.35000 114.379 main 304 298 P_PP__________ WP341995 8.15750 114.415 30 -1 8.39999 114.007 1 29 1004 8.49251 114.715 TD 30 1002 3 291
1995341N08115 1995 96 WP MM NOT_NAMED 1995-12-10 06:00:00 TS 8.40000 114.233 main 322 322 O_OO__________ jtwc_wp WP341995 8.20000 114.300 30 -1 8.50000 114.000 1 29 1004 8.50000 114.400 TD 30 1002 4 287
1995341N08115 1995 96 WP MM NOT_NAMED 1995-12-10 09:00:00 TS 8.45250 114.038 main 347 347 P_PP__________ WP341995 8.20751 114.150 30 -1 8.65002 113.865 1 29 1004 8.49998 114.100 TD 30 1002 4 284
1995341N08115 1995 96 WP MM NOT_NAMED 1995-12-10 12:00:00 TS 8.50000 113.833 main 366 366 O_OO__________ jtwc_wp WP341995 8.20000 114.000 30 -1 8.80000 113.700 1 29 1004 8.50000 113.800 TD 30 1002 4 283
1995341N08115 1995 96 WP MM NOT_NAMED 1995-12-10 15:00:00 TS 8.54083 113.654 main 376 376 P_PP__________ WP341995 8.19999 113.893 30 -1 8.92250 113.577 1 29 1004 8.49999 113.493 TD 30 1002 3 281
1995341N08115 1995 96 WP MM NOT_NAMED 1995-12-10 18:00:00 TS 8.56667 113.500 main 401 401 O_OO__________ jtwc_wp WP341995 8.20000 113.800 30 -1 9.00000 113.500 1 29 1004 8.50000 113.200 TD 30 1002 3 274
1995341N08115 1995 96 WP MM NOT_NAMED 1995-12-10 21:00:00 TS 8.55915 113.366 main 408 408 P_PP__________ WP341995 8.20000 113.693 30 -1 8.97748 113.463 1 29 1004 8.49997 112.943 TD 30 1002 2 272
1995341N08115 1995 96 WP MM NOT_NAMED 1995-12-11 00:00:00 TS 8.57273 113.318 main 416 408 O_OO__________ jtwc_wp WP341995 8.20000 113.600 30 -1 9.00000 113.500 1 29 1004 8.50000 112.700 TD 30 1002 1 7
1995341N08115 1995 96 WP MM NOT_NAMED 1995-12-11 03:00:00 TS 8.67702 113.376 main 416 411 P_PP__________ WP341995 8.19250 113.543 30 -1 9.25003 113.672 1 29 1004 8.50004 112.452 TD 30 1002 3 35
1995341N08115 1995 96 WP MM NOT_NAMED 1995-12-11 06:00:00 TS 8.81111 113.489 main 411 401 O_OO__________ jtwc_wp WP341995 8.20000 113.500 30 -1 9.50000 113.800 1 29 1004 8.50000 112.200 TD 30 1002 3 44
1995341N08115 1995 96 WP MM NOT_NAMED 1995-12-11 09:00:00 TS 8.88624 113.580 main 401 401 P_P___________ WP341995 8.22000 113.450 30 -1 9.55248 113.710 1 29 1004 TD 1 337
1995341N08115 1995 96 WP MM NOT_NAMED 1995-12-11 12:00:00 TS 8.90000 113.450 main 412 412 O_O___________ jtwc_wp WP341995 8.30000 113.400 30 -1 9.50000 113.500 1 29 1004 3 284
1995341N08115 1995 96 WP MM NOT_NAMED 1995-12-11 15:00:00 TS 8.95376 113.304 main 436 436 P_P___________ WP341995 8.48500 113.343 27 -1 9.42251 113.265 1 26 1004 3 289
1995341N08115 1995 96 WP MM NOT_NAMED 1995-12-11 18:00:00 TS 9.00000 113.150 main 447 447 O_O___________ jtwc_wp WP341995 8.70000 113.300 25 -1 9.30000 113.000 1 23 1004 3 280
1995341N08115 1995 96 WP MM NOT_NAMED 1995-12-11 21:00:00 TS 8.99998 113.040 main 468 468 P_P___________ WP341995 8.86497 113.330 25 -1 9.13498 112.750 1 23 1004 2 270
1995341N08115 1995 96 WP MM NOT_NAMED 1995-12-12 00:00:00 TS 9.00000 112.900 main 479 479 O_O___________ jtwc_wp WP341995 9.00000 113.300 25 -1 9.00000 112.500 1 23 1004 4 278
1995341N08115 1995 96 WP MM NOT_NAMED 1995-12-12 03:00:00 TS 9.05000 112.661 main 480 452 P_P___________ WP341995 9.12247 113.110 25 -1 8.97753 112.213 1 23 1004 5 281
1995341N08115 1995 96 WP MM NOT_NAMED 1995-12-12 06:00:00 TS 9.10000 112.400 main 452 434 O_O___________ jtwc_wp WP341995 9.20000 112.800 25 -1 9.00000 112.000 1 23 1004 5 278
1995341N08115 1995 96 WP MM NOT_NAMED 1995-12-12 09:00:00 TS 9.11126 112.204 main 434 417 P_P___________ WP341995 9.22257 112.407 22 -1 8.99995 112.000 1 23 1005 4 270
1995341N08115 1995 96 WP MM NOT_NAMED 1995-12-12 12:00:00 TS 9.10000 112.000 main 417 392 O_O___________ jtwc_wp WP341995 9.20000 112.000 20 -1 9.00000 112.000 1 23 1006 5 266
1995341N08115 1995 96 WP MM NOT_NAMED 1995-12-12 15:00:00 TS 9.08249 111.733 main 392 375 P_P___________ WP341995 9.16495 111.678 22 -1 9.00003 111.788 1 23 1006 5 265
1995341N08115 1995 96 WP MM NOT_NAMED 1995-12-12 18:00:00 TS 9.05000 111.450 main 375 360 O_O___________ jtwc_wp WP341995 9.10000 111.400 25 -1 9.00000 111.500 1 23 1006 5 261
1995341N08115 1995 96 WP MM NOT_NAMED 1995-12-12 21:00:00 TS 9.00369 111.211 main 360 346 P_P___________ WP341995 9.00743 111.158 27 -1 8.99995 111.265 1 23 1006 5 259
1995341N08115 1995 96 WP MM NOT_NAMED 1995-12-13 00:00:00 TS 8.95000 110.950 main 346 330 O_O___________ jtwc_wp WP341995 8.90000 110.900 30 -1 9.00000 111.000 1 23 1006 6 261
1995341N08115 1995 96 WP MM NOT_NAMED 1995-12-13 03:00:00 TS 8.91130 110.593 main 330 311 P_P___________ WP341995 8.80750 110.565 30 -1 9.01509 110.620 1 26 1006 7 262
1995341N08115 1995 96 WP MM NOT_NAMED 1995-12-13 06:00:00 TS 8.85000 110.250 main 311 300 O_O___________ jtwc_wp WP341995 8.70000 110.200 30 -1 9.00000 110.300 1 29 1006 6 253
1995341N08115 1995 96 WP MM NOT_NAMED 1995-12-13 09:00:00 TS 8.73999 110.016 main 308 302 P_P___________ WP341995 8.55753 109.820 27 -1 8.92244 110.213 1 29 1006 5 238
1995341N08115 1995 96 WP MM NOT_NAMED 1995-12-13 12:00:00 TS 8.60000 109.850 main 311 305 O_O___________ jtwc_wp WP341995 8.40000 109.500 25 -1 8.80000 110.200 1 29 1006 4 225
1995341N08115 1995 96 WP MM NOT_NAMED 1995-12-13 15:00:00 TS 8.43872 109.718 main 318 318 P_P___________ WP341995 8.24246 109.305 25 -1 8.63498 110.130 1 29 1006 4 219
1995341N08115 1995 96 WP MM NOT_NAMED 1995-12-13 18:00:00 TS 8.30000 109.600 main 321 315 O_O___________ jtwc_wp WP341995 8.10000 109.200 25 -1 8.50000 110.000 1 29 1006 3 230
1995341N08115 1995 96 WP MM NOT_NAMED 1995-12-13 21:00:00 TS 8.22000 109.457 main 324 314 P_P___________ WP341995 7.99999 109.143 22 -1 8.44002 109.772 1 29 1006 3 251
1995341N08115 1995 96 WP MM NOT_NAMED 1995-12-14 00:00:00 TS 8.20000 109.300 main 314 294 O_O___________ jtwc_wp WP341995 7.90000 109.100 20 -1 8.50000 109.500 1 29 1006 3 276
1995341N08115 1995 96 WP MM NOT_NAMED 1995-12-14 03:00:00 TS 8.25377 109.106 main 294 290 P_P___________ WP341995 7.75751 109.000 17 -1 8.75003 109.213 1 26 1006 4 286
1995341N08115 1995 96 WP MM NOT_NAMED 1995-12-14 06:00:00 TS 8.30000 108.950 main 290 286 O_O___________ jtwc_wp WP341995 7.60000 108.900 15 -1 9.00000 109.000 1 23 1006 2 270
1995341N08115 1995 96 WP MM NOT_NAMED 1995-12-14 09:00:00 TS 8.25499 108.894 main 286 286 P_P___________ WP341995 7.44750 108.838 12 -1 9.06248 108.950 1 21 1007 2 199
1995341N08115 1995 96 WP MM NOT_NAMED 1995-12-14 12:00:00 TS 8.15000 108.900 main 296 O_O___________ jtwc_wp WP341995 7.30000 108.800 10 -1 9.00000 109.000 0 19 1008 2 0

Digital Typhoon Data and Search

About IBTrACS Database

This database is a web-friendly format of International Best Track Archive for Climate Stewardship (IBTrACS), a global best track data archive curated by NOAA dating back to 1842.

Updated: 2021-12-03